Time;durP1;ratioP1;P1;durP2;ratioP2;P2;SDS_P1;SDS_P2;PMS_P1;PMS_P2;Temp;Humidity;BMP_temperature;BMP_pressure;BME280_temperature;BME280_humidity;BME280_pressure;Samples;Min_cycle;Max_cycle;Signal;HPM_P1;HPM_P2
2023/05/03 00:01:58;;;;;;;14.23;7.33;;;7.20;99.90;;;;;;514042;231;27805;-70
2023/05/03 00:03:59;;;;;;;13.30;7.70;;;7.10;99.90;;;;;;514055;231;27616;-70
2023/05/03 00:06:00;;;;;;;13.20;7.70;;;7.10;99.90;;;;;;513970;231;27846;-72
2023/05/03 00:08:02;;;;;;;10.73;7.57;;;7.10;99.90;;;;;;514042;231;27845;-72
2023/05/03 00:10:03;;;;;;;14.43;8.07;;;7.10;99.90;;;;;;514055;231;27722;-72
2023/05/03 00:12:04;;;;;;;10.63;7.73;;;7.10;99.90;;;;;;514050;231;27802;-72
2023/05/03 00:14:05;;;;;;;10.43;7.13;;;7.10;99.90;;;;;;514044;231;27875;-71
2023/05/03 00:16:06;;;;;;;10.07;7.40;;;7.10;99.90;;;;;;513996;231;27904;-72
2023/05/03 00:18:08;;;;;;;14.47;7.57;;;7.00;99.90;;;;;;514048;231;28324;-70
2023/05/03 00:20:10;;;;;;;13.67;7.33;;;7.00;99.90;;;;;;514070;231;28023;-70
2023/05/03 00:22:11;;;;;;;8.80;6.90;;;6.90;99.90;;;;;;514010;231;28428;-70
2023/05/03 00:24:11;;;;;;;15.77;7.70;;;6.90;99.90;;;;;;514016;231;27800;-70
2023/05/03 00:26:13;;;;;;;15.10;8.17;;;6.90;99.90;;;;;;513971;231;27977;-72
2023/05/03 00:28:14;;;;;;;14.50;7.83;;;6.90;99.90;;;;;;514063;231;27931;-70
2023/05/03 00:30:17;;;;;;;13.30;8.07;;;6.80;99.90;;;;;;514100;231;27884;-73
2023/05/03 00:32:16;;;;;;;14.33;8.07;;;6.80;99.90;;;;;;513903;231;27797;-72
2023/05/03 00:34:18;;;;;;;12.17;7.50;;;6.80;99.90;;;;;;514038;231;27912;-72
2023/05/03 00:36:19;;;;;;;12.20;8.03;;;6.90;99.90;;;;;;514001;231;27988;-70
2023/05/03 00:38:20;;;;;;;10.50;7.57;;;6.80;99.90;;;;;;514063;231;27872;-70
2023/05/03 00:40:21;;;;;;;12.00;6.80;;;6.80;99.90;;;;;;514064;231;28243;-70
2023/05/03 00:42:23;;;;;;;7.90;6.50;;;6.80;99.90;;;;;;514048;231;28237;-72
2023/05/03 00:44:24;;;;;;;13.27;7.10;;;6.80;99.90;;;;;;513951;231;27850;-72
2023/05/03 00:46:25;;;;;;;9.40;6.67;;;7.20;99.90;;;;;;514014;231;28018;-70
2023/05/03 00:48:27;;;;;;;11.83;8.10;;;6.60;99.90;;;;;;514062;231;27867;-70
2023/05/03 00:50:28;;;;;;;15.27;7.70;;;6.60;99.90;;;;;;514039;231;28683;-70
2023/05/03 00:52:29;;;;;;;13.03;8.30;;;6.60;99.90;;;;;;514038;231;29176;-69
2023/05/03 00:54:31;;;;;;;10.67;7.40;;;6.90;99.90;;;;;;513982;231;29136;-70
2023/05/03 00:56:32;;;;;;;10.77;7.37;;;6.50;99.90;;;;;;513969;231;29549;-70
2023/05/03 00:58:35;;;;;;;16.53;8.10;;;6.60;99.90;;;;;;514062;231;27940;-72
2023/05/03 01:00:34;;;;;;;11.10;7.50;;;6.50;99.90;;;;;;513930;231;27839;-72
2023/05/03 01:02:35;;;;;;;14.93;7.63;;;6.50;99.90;;;;;;514037;231;27802;-70
2023/05/03 01:04:37;;;;;;;11.73;7.73;;;6.50;99.90;;;;;;513969;231;27790;-70
2023/05/03 01:06:38;;;;;;;10.03;7.03;;;6.40;99.90;;;;;;514041;231;27729;-72
2023/05/03 01:08:39;;;;;;;11.90;7.67;;;6.50;99.90;;;;;;514035;231;28023;-73
2023/05/03 01:10:40;;;;;;;13.20;7.40;;;6.50;99.90;;;;;;514031;231;28488;-72
2023/05/03 01:12:42;;;;;;;15.20;8.00;;;6.40;99.90;;;;;;514037;231;28219;-70
2023/05/03 01:14:43;;;;;;;12.70;8.02;;;6.30;99.90;;;;;;513941;231;27903;-70
2023/05/03 01:16:44;;;;;;;13.40;7.80;;;6.30;99.90;;;;;;514012;231;28543;-72
2023/05/03 01:18:48;;;;;;;13.53;7.83;;;6.30;99.90;;;;;;514048;231;27915;-69
2023/05/03 01:20:47;;;;;;;11.07;7.20;;;6.30;99.90;;;;;;513869;231;28261;-73
2023/05/03 01:22:48;;;;;;;12.15;7.80;;;6.40;99.90;;;;;;514019;231;27990;-70
2023/05/03 01:24:49;;;;;;;16.62;7.85;;;6.30;99.90;;;;;;513945;231;27483;-70
2023/05/03 01:26:50;;;;;;;13.33;7.37;;;6.10;99.90;;;;;;513999;231;27431;-70
2023/05/03 01:28:52;;;;;;;12.80;7.95;;;6.30;99.90;;;;;;514010;231;28010;-70
2023/05/03 01:30:53;;;;;;;16.20;7.97;;;6.40;99.90;;;;;;514017;231;27890;-72
2023/05/03 01:32:54;;;;;;;14.40;7.67;;;6.20;99.90;;;;;;514032;231;27406;-72
2023/05/03 01:34:55;;;;;;;13.35;7.72;;;6.20;99.90;;;;;;513966;231;28026;-70
2023/05/03 01:36:57;;;;;;;14.93;8.20;;;6.00;99.90;;;;;;514038;231;27350;-70
2023/05/03 01:38:58;;;;;;;17.58;8.30;;;6.10;99.90;;;;;;514045;231;28663;-70
2023/05/03 01:41:00;;;;;;;13.00;7.82;;;5.70;99.90;;;;;;514054;231;27568;-70
2023/05/03 01:43:00;;;;;;;15.55;7.60;;;6.20;99.90;;;;;;514004;231;27799;-70
2023/05/03 01:45:02;;;;;;;14.95;8.13;;;5.90;99.90;;;;;;513987;231;27399;-70
2023/05/03 01:47:03;;;;;;;12.95;7.10;;;6.00;99.90;;;;;;514030;231;27359;-70
2023/05/03 01:49:04;;;;;;;13.07;8.02;;;6.00;99.90;;;;;;514074;231;27421;-70
2023/05/03 01:51:05;;;;;;;11.90;7.05;;;6.10;99.90;;;;;;514048;231;27468;-70
2023/05/03 01:53:07;;;;;;;15.00;8.70;;;6.00;99.90;;;;;;514068;231;27807;-70
2023/05/03 01:55:08;;;;;;;14.55;7.37;;;6.00;99.90;;;;;;513947;231;29291;-72
2023/05/03 01:57:09;;;;;;;10.82;7.70;;;6.00;99.90;;;;;;514044;231;27486;-70
2023/05/03 01:59:11;;;;;;;9.52;7.12;;;5.50;99.90;;;;;;514056;231;27542;-70
2023/05/03 02:01:12;;;;;;;15.65;8.98;;;5.90;99.90;;;;;;514060;231;27386;-70
2023/05/03 02:03:13;;;;;;;13.23;7.50;;;5.60;99.90;;;;;;514032;231;27351;-70
2023/05/03 02:05:14;;;;;;;14.40;8.48;;;6.10;99.90;;;;;;513936;231;27459;-70
2023/05/03 02:07:16;;;;;;;22.70;7.70;;;6.00;99.90;;;;;;514051;231;27960;-71
2023/05/03 02:09:17;;;;;;;13.07;7.75;;;6.00;99.90;;;;;;514051;231;27425;-70
2023/05/03 02:11:18;;;;;;;11.05;8.63;;;6.10;99.90;;;;;;514037;231;27482;-70
2023/05/03 02:13:19;;;;;;;11.57;7.50;;;5.90;99.90;;;;;;514049;231;27387;-70
2023/05/03 02:15:21;;;;;;;11.63;7.70;;;5.90;99.90;;;;;;513911;231;27572;-69
2023/05/03 02:17:25;;;;;;;16.55;7.82;;;5.60;99.90;;;;;;514020;231;28009;-72
2023/05/03 02:19:23;;;;;;;17.30;7.60;;;5.90;99.90;;;;;;513822;231;27418;-72
2023/05/03 02:21:27;;;;;;;12.33;7.50;;;5.90;99.90;;;;;;514041;231;27370;-73
2023/05/03 02:23:26;;;;;;;15.68;7.85;;;6.00;99.90;;;;;;513825;231;28687;-69
2023/05/03 02:25:27;;;;;;;15.98;8.50;;;5.60;99.90;;;;;;513944;231;27366;-70
2023/05/03 02:27:28;;;;;;;16.45;7.65;;;5.70;99.90;;;;;;514033;231;27387;-70
2023/05/03 02:29:30;;;;;;;13.55;7.75;;;5.80;99.90;;;;;;514031;231;27874;-70
2023/05/03 02:31:31;;;;;;;15.17;7.97;;;5.60;99.90;;;;;;514053;231;27453;-70
2023/05/03 02:33:32;;;;;;;11.93;7.00;;;5.80;99.90;;;;;;514035;231;28733;-72
2023/05/03 02:35:33;;;;;;;11.80;7.60;;;5.70;99.90;;;;;;513984;231;27377;-70
2023/05/03 02:37:35;;;;;;;15.48;8.57;;;5.60;99.90;;;;;;514043;231;27374;-70
2023/05/03 02:39:36;;;;;;;9.43;7.30;;;5.80;99.90;;;;;;514064;231;27335;-70
2023/05/03 02:41:37;;;;;;;13.40;7.85;;;5.70;99.90;;;;;;514057;231;27883;-70
2023/05/03 02:43:38;;;;;;;11.30;7.32;;;5.70;99.90;;;;;;514052;231;27869;-70
2023/05/03 02:45:40;;;;;;;21.33;8.27;;;5.70;99.90;;;;;;514002;231;27500;-69
2023/05/03 02:47:41;;;;;;;14.63;7.37;;;5.70;99.90;;;;;;514039;231;27320;-70
2023/05/03 02:49:42;;;;;;;10.93;6.90;;;5.70;99.90;;;;;;514039;231;27870;-70
2023/05/03 02:51:43;;;;;;;14.68;7.15;;;5.60;99.90;;;;;;514064;231;27852;-72
2023/05/03 02:53:45;;;;;;;15.73;7.37;;;5.60;99.90;;;;;;514060;231;27339;-70
2023/05/03 02:55:46;;;;;;;14.13;8.48;;;5.50;99.90;;;;;;513967;231;27386;-72
2023/05/03 02:57:47;;;;;;;10.13;6.22;;;5.30;99.90;;;;;;514006;231;27418;-72
2023/05/03 02:59:48;;;;;;;16.35;7.40;;;5.60;99.90;;;;;;514069;231;27437;-70
2023/05/03 03:01:50;;;;;;;12.30;7.60;;;5.50;99.90;;;;;;514070;231;27857;-70
2023/05/03 03:03:51;;;;;;;22.83;10.10;;;5.40;99.90;;;;;;514047;231;27781;-69
2023/05/03 03:05:52;;;;;;;22.95;16.35;;;5.50;99.90;;;;;;513952;231;27363;-70
2023/05/03 03:07:53;;;;;;;26.30;19.00;;;5.80;99.90;;;;;;514067;231;27319;-69
2023/05/03 03:09:55;;;;;;;22.73;13.30;;;5.30;99.90;;;;;;514077;231;27336;-70
2023/05/03 03:11:56;;;;;;;15.60;9.43;;;5.50;99.90;;;;;;514078;231;27864;-71
2023/05/03 03:13:57;;;;;;;12.82;8.30;;;5.40;99.90;;;;;;514034;231;27797;-69
2023/05/03 03:15:58;;;;;;;11.85;7.70;;;5.40;99.90;;;;;;513981;231;27457;-70
2023/05/03 03:18:00;;;;;;;16.65;7.95;;;5.50;99.90;;;;;;514066;231;27370;-70
2023/05/03 03:20:04;;;;;;;13.48;7.22;;;5.50;99.90;;;;;;514053;231;27327;-70
2023/05/03 03:22:02;;;;;;;11.80;6.90;;;5.50;99.90;;;;;;513776;231;27426;-70
2023/05/03 03:24:04;;;;;;;11.90;6.60;;;5.20;99.90;;;;;;514037;231;27791;-72
2023/05/03 03:26:05;;;;;;;20.30;7.93;;;5.50;99.90;;;;;;513967;231;27445;-70
2023/05/03 03:28:06;;;;;;;13.27;7.95;;;5.50;99.90;;;;;;514000;231;27426;-70
2023/05/03 03:30:08;;;;;;;9.77;7.10;;;5.40;99.90;;;;;;514052;231;27327;-70
2023/05/03 03:32:09;;;;;;;14.43;7.30;;;5.40;99.90;;;;;;513939;231;27477;-70
2023/05/03 03:34:10;;;;;;;15.10;7.60;;;5.40;99.90;;;;;;514042;231;27486;-70
2023/05/03 03:36:11;;;;;;;9.85;7.25;;;5.40;99.90;;;;;;513994;231;27859;-70
2023/05/03 03:38:12;;;;;;;10.57;7.78;;;5.50;99.90;;;;;;513995;231;28190;-69
2023/05/03 03:40:14;;;;;;;11.77;6.82;;;5.30;99.90;;;;;;514039;231;27355;-70
2023/05/03 03:42:15;;;;;;;11.38;7.30;;;5.40;99.90;;;;;;514008;231;27375;-70
2023/05/03 03:44:16;;;;;;;13.13;7.07;;;5.30;99.90;;;;;;514015;231;27343;-70
2023/05/03 03:46:17;;;;;;;17.25;7.68;;;5.40;99.90;;;;;;514000;231;27403;-70
2023/05/03 03:48:19;;;;;;;11.60;6.35;;;5.30;99.90;;;;;;514039;231;28678;-69
2023/05/03 03:50:20;;;;;;;14.13;7.75;;;5.30;99.90;;;;;;514051;231;28120;-70
2023/05/03 03:52:21;;;;;;;11.48;5.55;;;5.40;99.90;;;;;;514043;231;27487;-70
2023/05/03 03:54:22;;;;;;;19.17;7.07;;;5.30;99.90;;;;;;513966;231;27326;-70
2023/05/03 03:56:24;;;;;;;10.85;6.20;;;5.80;99.90;;;;;;514006;231;27366;-70
2023/05/03 03:58:25;;;;;;;13.65;8.23;;;5.30;99.90;;;;;;514019;231;27327;-69
2023/05/03 04:00:26;;;;;;;14.48;7.60;;;5.30;99.90;;;;;;514050;231;27992;-70
2023/05/03 04:02:27;;;;;;;11.57;6.68;;;5.30;99.90;;;;;;514052;231;27434;-71
2023/05/03 04:04:30;;;;;;;10.05;7.72;;;5.20;99.90;;;;;;513980;231;27863;-70
2023/05/03 04:06:31;;;;;;;12.20;6.95;;;5.20;99.90;;;;;;513948;231;27363;-70
2023/05/03 04:08:31;;;;;;;13.80;7.80;;;5.40;99.90;;;;;;514011;231;27337;-69
2023/05/03 04:10:33;;;;;;;12.13;7.90;;;5.20;99.90;;;;;;514064;231;27330;-70
2023/05/03 04:12:34;;;;;;;13.35;6.40;;;5.20;99.90;;;;;;514009;231;27856;-71
2023/05/03 04:14:35;;;;;;;11.75;7.28;;;5.20;99.90;;;;;;513964;231;27324;-71
2023/05/03 04:16:36;;;;;;;8.38;5.78;;;5.30;99.90;;;;;;513976;231;27453;-70
2023/05/03 04:18:38;;;;;;;9.00;6.50;;;5.30;99.90;;;;;;514047;231;27739;-70
2023/05/03 04:20:39;;;;;;;7.70;6.15;;;5.30;99.90;;;;;;514047;231;27375;-70
2023/05/03 04:22:40;;;;;;;9.27;6.40;;;5.10;99.90;;;;;;514028;231;27394;-70
2023/05/03 04:24:42;;;;;;;13.93;7.40;;;5.30;99.90;;;;;;513988;231;27782;-70
2023/05/03 04:26:43;;;;;;;10.73;6.85;;;5.10;99.90;;;;;;513967;231;28021;-70
2023/05/03 04:28:44;;;;;;;10.77;6.55;;;5.20;99.90;;;;;;514042;231;27375;-71
2023/05/03 04:30:46;;;;;;;11.55;6.87;;;5.20;99.90;;;;;;514062;231;27330;-70
2023/05/03 04:32:46;;;;;;;16.55;7.32;;;5.30;99.90;;;;;;514053;231;27374;-72
2023/05/03 04:34:48;;;;;;;10.43;6.05;;;5.20;99.90;;;;;;514007;231;27420;-72
2023/05/03 04:36:49;;;;;;;8.77;5.47;;;5.20;99.90;;;;;;514065;231;27866;-72
2023/05/03 04:38:50;;;;;;;10.73;6.85;;;5.20;99.90;;;;;;514069;231;27865;-73
2023/05/03 04:40:52;;;;;;;9.48;6.57;;;5.20;99.90;;;;;;514042;231;27335;-70
2023/05/03 04:42:53;;;;;;;10.50;6.72;;;5.30;99.90;;;;;;514050;231;27375;-70
2023/05/03 04:44:54;;;;;;;13.70;7.87;;;5.30;99.90;;;;;;513993;231;27346;-70
2023/05/03 04:46:55;;;;;;;12.25;6.97;;;5.30;99.90;;;;;;514072;231;27436;-70
2023/05/03 04:48:56;;;;;;;10.60;6.57;;;5.40;99.90;;;;;;514047;231;27863;-73
2023/05/03 04:50:58;;;;;;;10.95;6.80;;;5.30;99.90;;;;;;514029;231;27815;-70
2023/05/03 04:52:59;;;;;;;10.90;6.37;;;5.90;99.90;;;;;;514001;231;27359;-70
2023/05/03 04:55:00;;;;;;;12.02;7.07;;;5.30;99.90;;;;;;513956;231;28060;-71
2023/05/03 04:57:01;;;;;;;13.43;6.85;;;5.30;99.90;;;;;;514025;231;27390;-71
2023/05/03 04:59:04;;;;;;;8.65;6.90;;;5.30;99.90;;;;;;514017;231;27457;-70
2023/05/03 05:01:04;;;;;;;12.50;6.60;;;5.30;99.90;;;;;;513997;231;27412;-72
2023/05/03 05:03:05;;;;;;;19.62;7.07;;;5.50;99.90;;;;;;514021;231;27835;-72
2023/05/03 05:05:08;;;;;;;8.88;6.12;;;5.40;99.90;;;;;;513971;231;27794;-72
2023/05/03 05:07:08;;;;;;;14.60;7.03;;;5.50;99.90;;;;;;513999;231;27351;-70
2023/05/03 05:09:09;;;;;;;11.27;7.12;;;5.50;99.90;;;;;;514039;231;27379;-72
2023/05/03 05:11:10;;;;;;;14.95;6.82;;;5.60;99.90;;;;;;514038;231;27387;-71
2023/05/03 05:13:12;;;;;;;13.55;6.70;;;5.40;99.90;;;;;;514017;231;27406;-72
2023/05/03 05:15:13;;;;;;;14.95;7.35;;;5.50;99.90;;;;;;514005;231;27999;-70
2023/05/03 05:17:15;;;;;;;16.92;7.82;;;5.50;99.90;;;;;;514040;231;27320;-70
2023/05/03 05:19:15;;;;;;;11.68;7.37;;;5.50;99.90;;;;;;513899;231;27391;-70
2023/05/03 05:21:17;;;;;;;14.13;7.37;;;5.60;99.90;;;;;;513989;231;27436;-70
2023/05/03 05:23:18;;;;;;;11.93;7.20;;;5.60;99.90;;;;;;513995;231;27467;-70
2023/05/03 05:25:19;;;;;;;14.80;7.28;;;5.60;99.90;;;;;;513987;231;27366;-71
2023/05/03 05:27:20;;;;;;;11.85;7.75;;;5.70;99.90;;;;;;514048;231;27943;-70
2023/05/03 05:29:22;;;;;;;12.07;7.25;;;5.70;99.90;;;;;;513982;231;27366;-70
2023/05/03 05:31:23;;;;;;;10.57;7.50;;;5.80;99.90;;;;;;514003;231;27553;-70
2023/05/03 05:33:24;;;;;;;13.23;7.60;;;5.80;99.90;;;;;;514027;231;27354;-70
2023/05/03 05:35:25;;;;;;;12.23;7.00;;;5.70;99.90;;;;;;513974;231;28788;-72
2023/05/03 05:37:27;;;;;;;16.50;7.90;;;5.90;99.90;;;;;;514018;231;28727;-69
2023/05/03 05:39:28;;;;;;;12.93;7.47;;;5.90;99.90;;;;;;513982;231;28785;-70
2023/05/03 05:41:29;;;;;;;13.32;7.53;;;6.00;99.90;;;;;;514015;231;28643;-72
2023/05/03 05:43:30;;;;;;;14.35;7.80;;;6.00;99.90;;;;;;514051;231;27373;-72
2023/05/03 05:45:33;;;;;;;11.15;7.40;;;6.10;99.90;;;;;;513953;231;27390;-72
2023/05/03 05:47:33;;;;;;;11.83;7.83;;;6.20;99.90;;;;;;513978;231;27347;-72
2023/05/03 05:49:34;;;;;;;17.67;8.00;;;6.20;99.90;;;;;;514005;231;28485;-72
2023/05/03 05:51:35;;;;;;;15.67;7.70;;;6.30;99.90;;;;;;514024;231;28470;-72
2023/05/03 05:53:37;;;;;;;11.32;7.12;;;6.30;99.90;;;;;;514035;231;27644;-71
2023/05/03 05:55:38;;;;;;;12.77;8.23;;;6.40;99.90;;;;;;513972;231;27997;-73
2023/05/03 05:57:39;;;;;;;13.73;7.70;;;6.40;99.90;;;;;;514027;231;29091;-72
2023/05/03 05:59:41;;;;;;;17.17;8.02;;;6.50;99.90;;;;;;514004;231;28797;-72
2023/05/03 06:01:44;;;;;;;13.13;7.70;;;6.50;99.90;;;;;;514045;231;27477;-72
2023/05/03 06:03:43;;;;;;;12.63;7.30;;;6.50;99.90;;;;;;513863;231;27768;-72
2023/05/03 06:05:44;;;;;;;12.80;7.63;;;6.50;99.90;;;;;;514007;231;27714;-72
2023/05/03 06:07:46;;;;;;;11.63;7.23;;;6.60;99.90;;;;;;514052;231;27638;-72
2023/05/03 06:09:47;;;;;;;10.37;7.00;;;6.60;99.90;;;;;;514018;231;28675;-72
2023/05/03 06:11:49;;;;;;;13.70;7.20;;;6.70;99.90;;;;;;514047;231;27820;-72
2023/05/03 06:13:49;;;;;;;11.87;7.20;;;6.70;99.90;;;;;;514055;231;28315;-72
2023/05/03 06:15:51;;;;;;;10.47;7.40;;;6.80;99.90;;;;;;513997;231;28427;-72
2023/05/03 06:17:52;;;;;;;10.43;6.77;;;6.90;99.90;;;;;;514048;231;28581;-72
2023/05/03 06:19:53;;;;;;;17.93;8.00;;;7.00;99.90;;;;;;514079;231;28354;-72
2023/05/03 06:21:54;;;;;;;13.50;8.00;;;7.00;99.90;;;;;;514087;231;27815;-72
2023/05/03 06:23:56;;;;;;;15.33;6.70;;;7.10;99.90;;;;;;514104;231;27611;-72
2023/05/03 06:25:57;;;;;;;15.37;7.10;;;7.10;99.90;;;;;;514064;231;28754;-72
2023/05/03 06:27:58;;;;;;;13.97;6.93;;;7.20;99.90;;;;;;514103;231;27560;-72
2023/05/03 06:29:59;;;;;;;12.80;6.67;;;7.30;99.90;;;;;;514074;231;28023;-72
2023/05/03 06:32:01;;;;;;;13.30;6.90;;;7.40;99.90;;;;;;514041;231;27943;-73
2023/05/03 06:34:02;;;;;;;11.43;6.97;;;7.40;99.90;;;;;;514087;231;27664;-72
2023/05/03 06:36:03;;;;;;;12.70;6.83;;;7.40;99.90;;;;;;514014;231;27519;-73
2023/05/03 06:38:04;;;;;;;12.80;6.60;;;7.60;99.90;;;;;;514049;231;27805;-72
2023/05/03 06:40:06;;;;;;;13.93;7.00;;;7.50;99.90;;;;;;514025;231;28391;-72
2023/05/03 06:42:07;;;;;;;11.53;7.10;;;7.60;99.90;;;;;;514052;231;28494;-72
2023/05/03 06:44:08;;;;;;;12.20;7.17;;;7.70;99.90;;;;;;514053;231;28124;-72
2023/05/03 06:46:11;;;;;;;10.87;6.93;;;7.80;99.90;;;;;;514026;231;27731;-72
2023/05/03 06:48:11;;;;;;;12.03;7.90;;;7.90;99.90;;;;;;513966;231;27811;-72
2023/05/03 06:50:12;;;;;;;9.10;6.40;;;7.90;99.90;;;;;;514041;231;27841;-72
2023/05/03 06:52:13;;;;;;;13.90;6.87;;;7.90;99.90;;;;;;514022;231;27558;-72
2023/05/03 06:54:14;;;;;;;12.07;7.03;;;7.90;99.90;;;;;;514034;231;27490;-72
2023/05/03 06:56:16;;;;;;;13.07;7.03;;;7.90;99.90;;;;;;514015;231;27718;-72
2023/05/03 06:58:17;;;;;;;13.43;6.27;;;8.00;99.90;;;;;;514050;231;27434;-72
2023/05/03 07:00:19;;;;;;;12.00;6.93;;;8.00;99.90;;;;;;514042;231;27847;-72
2023/05/03 07:02:20;;;;;;;14.83;7.07;;;8.00;99.90;;;;;;514026;231;27786;-72
2023/05/03 07:04:21;;;;;;;15.07;6.87;;;8.10;99.90;;;;;;513994;231;27972;-73
2023/05/03 07:06:23;;;;;;;11.90;6.63;;;8.10;99.90;;;;;;514025;231;28030;-73
2023/05/03 07:08:23;;;;;;;10.47;6.77;;;8.20;99.90;;;;;;514011;231;28133;-72
2023/05/03 07:10:25;;;;;;;9.47;6.97;;;8.30;99.90;;;;;;514042;231;27813;-73
2023/05/03 07:12:27;;;;;;;13.40;7.37;;;8.50;99.90;;;;;;514034;231;27567;-73
2023/05/03 07:14:27;;;;;;;17.80;7.10;;;8.50;99.90;;;;;;513939;231;27807;-72
2023/05/03 07:16:28;;;;;;;11.10;5.83;;;8.80;99.90;;;;;;514061;231;27792;-73
2023/05/03 07:18:29;;;;;;;13.80;6.60;;;8.90;99.90;;;;;;514038;231;27638;-72
2023/05/03 07:20:31;;;;;;;11.80;7.30;;;8.90;99.90;;;;;;514020;231;27697;-72
2023/05/03 07:22:32;;;;;;;11.60;7.20;;;8.80;99.90;;;;;;514009;231;27677;-73
2023/05/03 07:24:33;;;;;;;12.60;7.00;;;9.00;99.90;;;;;;513984;231;27878;-72
2023/05/03 07:26:34;;;;;;;14.03;6.93;;;9.00;99.90;;;;;;514065;231;28417;-73
2023/05/03 07:28:36;;;;;;;11.23;6.73;;;9.10;99.90;;;;;;514052;231;28139;-72
2023/05/03 07:30:37;;;;;;;11.10;6.17;;;9.20;99.90;;;;;;514048;231;28289;-73
2023/05/03 07:32:38;;;;;;;12.27;6.97;;;9.40;99.90;;;;;;514061;231;28246;-72
2023/05/03 07:34:39;;;;;;;11.03;6.40;;;9.30;99.90;;;;;;513981;231;27719;-73
2023/05/03 07:36:41;;;;;;;9.57;6.10;;;9.40;99.90;;;;;;514065;231;27839;-72
2023/05/03 07:38:42;;;;;;;13.90;6.77;;;9.50;99.90;;;;;;514057;231;27670;-72
2023/05/03 07:40:43;;;;;;;13.50;5.80;;;9.60;99.90;;;;;;514038;231;27840;-73
2023/05/03 07:42:45;;;;;;;9.30;5.90;;;9.70;99.90;;;;;;513987;231;27873;-72
2023/05/03 07:44:46;;;;;;;11.30;6.03;;;9.60;99.90;;;;;;513981;231;27868;-72
2023/05/03 07:46:47;;;;;;;10.47;5.97;;;9.60;99.90;;;;;;514058;231;27715;-73
2023/05/03 07:48:48;;;;;;;9.83;7.37;;;9.70;99.90;;;;;;513996;231;27819;-72
2023/05/03 07:50:49;;;;;;;10.33;6.37;;;10.00;99.90;;;;;;514031;231;27367;-72
2023/05/03 07:52:51;;;;;;;9.33;6.00;;;10.10;99.90;;;;;;513999;231;28270;-72
2023/05/03 07:54:52;;;;;;;24.83;6.80;;;10.10;99.90;;;;;;513977;231;28113;-72
2023/05/03 07:56:53;;;;;;;10.30;6.60;;;10.10;99.90;;;;;;514071;231;28308;-72
2023/05/03 07:58:55;;;;;;;8.87;5.70;;;10.00;99.90;;;;;;514061;231;27929;-72
2023/05/03 08:00:56;;;;;;;9.53;5.67;;;10.00;99.90;;;;;;514048;231;27918;-72
2023/05/03 08:02:57;;;;;;;11.53;5.57;;;10.00;99.90;;;;;;514024;231;27799;-72
2023/05/03 08:04:58;;;;;;;10.83;5.90;;;10.20;99.90;;;;;;513991;231;27797;-72
2023/05/03 08:06:59;;;;;;;10.43;6.43;;;10.40;99.90;;;;;;514050;231;27557;-73
2023/05/03 08:09:01;;;;;;;13.00;5.80;;;10.30;99.90;;;;;;514051;231;27918;-72
2023/05/03 08:11:02;;;;;;;9.10;6.20;;;10.20;99.90;;;;;;514028;231;27904;-73
2023/05/03 08:13:04;;;;;;;7.47;5.87;;;10.50;99.90;;;;;;514009;231;28283;-73
2023/05/03 08:15:05;;;;;;;8.90;5.90;;;10.40;99.90;;;;;;513914;231;28291;-72
2023/05/03 08:17:06;;;;;;;9.80;5.47;;;10.30;99.90;;;;;;514015;231;28178;-72
2023/05/03 08:19:07;;;;;;;7.17;5.60;;;10.20;99.90;;;;;;514042;231;28343;-73
2023/05/03 08:21:10;;;;;;;8.40;6.57;;;10.50;99.90;;;;;;514011;231;27812;-73
2023/05/03 08:23:10;;;;;;;7.03;4.77;;;10.60;99.90;;;;;;513868;231;27761;-73
2023/05/03 08:25:11;;;;;;;11.77;6.10;;;10.60;99.90;;;;;;513942;231;27851;-73
2023/05/03 08:27:12;;;;;;;12.40;5.80;;;10.50;99.90;;;;;;514012;231;28032;-72
2023/05/03 08:29:13;;;;;;;11.93;5.70;;;10.80;99.90;;;;;;514016;231;27897;-72
2023/05/03 08:31:15;;;;;;;10.73;5.37;;;10.90;99.90;;;;;;514009;231;27818;-72
2023/05/03 08:33:16;;;;;;;12.77;5.30;;;10.90;99.90;;;;;;513974;231;27908;-73
2023/05/03 08:35:17;;;;;;;7.67;5.37;;;10.80;99.90;;;;;;513912;231;28300;-72
2023/05/03 08:37:18;;;;;;;11.00;5.30;;;10.90;99.90;;;;;;514021;231;28334;-74
2023/05/03 08:39:19;;;;;;;7.50;4.63;;;11.00;99.90;;;;;;514030;231;28407;-73
2023/05/03 08:41:22;;;;;;;8.80;5.03;;;11.00;99.90;;;;;;514009;231;27816;-73
2023/05/03 08:43:22;;;;;;;9.93;5.30;;;11.10;99.90;;;;;;513901;231;27879;-73
2023/05/03 08:45:23;;;;;;;9.87;5.50;;;11.50;99.90;;;;;;513918;231;27898;-74
2023/05/03 08:47:25;;;;;;;8.27;5.20;;;11.50;99.90;;;;;;514022;231;27830;-73
2023/05/03 08:49:26;;;;;;;14.83;8.30;;;11.50;99.90;;;;;;513988;231;28012;-72
2023/05/03 08:51:27;;;;;;;7.20;5.10;;;11.40;99.90;;;;;;514013;231;27845;-73
2023/05/03 08:53:28;;;;;;;9.30;5.53;;;11.40;99.90;;;;;;514004;231;27978;-73
2023/05/03 08:55:30;;;;;;;6.90;5.03;;;11.60;99.90;;;;;;513914;231;28068;-72
2023/05/03 08:57:31;;;;;;;10.53;6.07;;;11.40;99.90;;;;;;513996;231;28431;-73
2023/05/03 08:59:32;;;;;;;6.80;4.87;;;11.50;99.90;;;;;;514044;231;28466;-72
2023/05/03 09:01:33;;;;;;;7.70;5.60;;;11.50;99.90;;;;;;513986;231;28619;-73
2023/05/03 09:03:35;;;;;;;13.23;5.97;;;11.80;99.90;;;;;;514012;231;27893;-72
2023/05/03 09:05:39;;;;;;;11.00;5.37;;;11.90;99.90;;;;;;513878;231;28124;-73
2023/05/03 09:07:37;;;;;;;8.83;4.93;;;11.70;99.90;;;;;;513831;231;28071;-73
2023/05/03 09:09:38;;;;;;;9.13;5.17;;;11.70;99.90;;;;;;514028;231;27992;-72
2023/05/03 09:11:40;;;;;;;11.83;4.47;;;11.80;99.90;;;;;;513995;231;28290;-74
2023/05/03 09:13:41;;;;;;;6.77;4.83;;;12.00;99.90;;;;;;513963;231;28071;-72
2023/05/03 09:15:45;;;;;;;8.67;4.90;;;12.10;99.90;;;;;;513873;231;28362;-72
2023/05/03 09:17:43;;;;;;;8.63;5.07;;;12.20;99.90;;;;;;513763;231;28120;-74
2023/05/03 09:19:45;;;;;;;10.80;5.33;;;12.20;99.90;;;;;;513981;231;28669;-73
2023/05/03 09:21:49;;;;;;;10.97;5.33;;;12.50;99.90;;;;;;513975;231;28722;-73
2023/05/03 09:23:50;;;;;;;10.03;5.10;;;12.40;99.90;;;;;;513999;231;28162;-73
2023/05/03 09:25:51;;;;;;;6.23;4.93;;;12.50;99.90;;;;;;513954;231;28183;-73
2023/05/03 09:27:52;;;;;;;7.78;4.65;;;12.60;99.90;;;;;;512474;231;46602;-73
2023/05/03 09:29:53;;;;;;;6.67;4.57;;;12.70;99.90;;;;;;513974;231;27416;-73
2023/05/03 09:31:55;;;;;;;7.63;4.30;;;12.80;99.90;;;;;;514018;231;28402;-73
2023/05/03 09:33:56;;;;;;;5.70;4.10;;;12.70;99.90;;;;;;513942;231;28426;-74
2023/05/03 09:35:57;;;;;;;7.10;4.60;;;12.70;99.90;;;;;;513955;231;28030;-73
2023/05/03 09:37:59;;;;;;;6.37;4.57;;;12.90;99.90;;;;;;513996;231;28540;-73
2023/05/03 09:40:00;;;;;;;6.60;4.50;;;12.70;99.90;;;;;;513960;231;28718;-73
2023/05/03 09:42:02;;;;;;;7.13;4.60;;;12.80;99.90;;;;;;513987;231;28706;-73
2023/05/03 09:44:04;;;;;;;8.50;4.63;;;;;;;;;;513937;231;28036;-73
2023/05/03 09:46:05;;;;;;;6.20;4.67;;;12.80;99.90;;;;;;513943;231;26686;-73
2023/05/03 09:48:07;;;;;;;6.17;4.00;;;12.90;99.90;;;;;;513994;231;28637;-73
2023/05/03 09:50:07;;;;;;;9.87;4.50;;;12.80;99.90;;;;;;513942;231;28787;-73
2023/05/03 09:52:10;;;;;;;8.70;4.57;;;;;;;;;;514003;231;29047;-73
2023/05/03 09:54:11;;;;;;;5.23;4.53;;;13.10;99.90;;;;;;514012;231;26516;-74
2023/05/03 09:56:12;;;;;;;7.83;4.40;;;13.00;99.90;;;;;;513960;231;28201;-73
2023/05/03 09:58:13;;;;;;;5.97;4.73;;;13.00;99.90;;;;;;513975;231;28578;-73
2023/05/03 10:00:16;;;;;;;5.70;4.43;;;12.80;99.90;;;;;;513984;231;28271;-72
2023/05/03 10:02:16;;;;;;;8.20;4.20;;;12.90;99.90;;;;;;513981;231;28365;-73
2023/05/03 10:04:18;;;;;;;6.23;3.80;;;13.20;99.90;;;;;;513844;231;28924;-72
2023/05/03 10:06:19;;;;;;;7.20;4.43;;;13.30;99.90;;;;;;513917;231;29181;-73
2023/05/03 10:08:20;;;;;;;6.57;4.27;;;13.20;99.90;;;;;;513997;231;28837;-73
2023/05/03 10:10:21;;;;;;;4.60;4.10;;;13.10;99.90;;;;;;513991;231;28148;-73
2023/05/03 10:12:22;;;;;;;8.20;4.60;;;13.40;99.90;;;;;;513984;231;28065;-73
2023/05/03 10:14:23;;;;;;;7.10;3.93;;;13.40;99.90;;;;;;513942;231;28068;-73
2023/05/03 10:16:26;;;;;;;5.20;3.90;;;;;;;;;;514035;231;28131;-72
2023/05/03 10:18:27;;;;;;;6.83;4.43;;;13.50;99.90;;;;;;513974;231;27122;-73
2023/05/03 10:20:28;;;;;;;5.80;4.10;;;13.50;99.90;;;;;;513940;231;28730;-73
2023/05/03 10:22:30;;;;;;;3.80;3.20;;;13.40;99.90;;;;;;514035;231;28846;-73
2023/05/03 10:24:31;;;;;;;6.50;4.07;;;13.40;99.90;;;;;;513939;231;28253;-73
2023/05/03 10:26:32;;;;;;;4.73;3.90;;;13.80;99.90;;;;;;513999;231;28117;-73
2023/05/03 10:28:33;;;;;;;4.90;4.10;;;13.90;99.90;;;;;;513973;231;28289;-72
2023/05/03 10:30:35;;;;;;;4.27;3.70;;;13.90;99.90;;;;;;513972;231;28168;-72
2023/05/03 10:32:38;;;;;;;9.03;3.43;;;14.00;99.90;;;;;;513984;231;28269;-73